createdAt,value
2018-12-14T00:00:58.778Z,637.50
2018-12-14T00:03:27.441Z,586.63
2018-12-14T00:05:56.077Z,529.33
2018-12-14T00:08:24.629Z,576.10
2018-12-14T00:10:53.347Z,761.63
2018-12-14T00:13:21.917Z,457.87
2018-12-14T00:15:50.618Z,372.17
2018-12-14T00:18:19.254Z,660.30
2018-12-14T00:20:47.759Z,428.07
2018-12-14T00:23:16.525Z,479.27
2018-12-14T00:25:45.161Z,320.83
2018-12-14T00:28:13.992Z,875.33
2018-12-14T00:30:42.562Z,543.33
2018-12-14T00:33:11.262Z,549.27
2018-12-14T00:35:40.754Z,421.07
2018-12-14T00:38:09.386Z,377.73
2018-12-14T00:40:38.129Z,524.67
2018-12-14T00:43:06.859Z,361.87
2018-12-14T00:45:35.523Z,354.57
2018-12-14T00:48:04.255Z,323.33
2018-12-14T00:50:32.822Z,939.50
2018-12-14T00:53:01.331Z,458.07
2018-12-14T00:55:29.964Z,364.30
2018-12-14T00:57:58.524Z,490.53
2018-12-14T01:00:27.433Z,591.53
2018-12-14T01:02:55.984Z,605.00
2018-12-14T01:05:24.679Z,1137.53
2018-12-14T01:07:53.271Z,693.33
2018-12-14T01:10:22.367Z,478.63
2018-12-14T01:12:50.931Z,399.47
2018-12-14T01:15:19.796Z,503.57
2018-12-14T01:17:48.469Z,350.17
2018-12-14T01:20:17.031Z,310.40
2018-12-14T01:22:45.722Z,395.40
2018-12-14T01:25:14.291Z,273.87
2018-12-14T01:27:43.055Z,252.57
2018-12-14T01:30:11.774Z,324.20
2018-12-14T01:32:40.480Z,352.47
2018-12-14T01:35:09.238Z,363.27
2018-12-14T01:37:37.877Z,297.47
2018-12-14T01:40:07.984Z,186.13
2018-12-14T01:42:36.661Z,303.43
2018-12-14T01:45:06.460Z,212.13
2018-12-14T01:47:35.170Z,201.97
2018-12-14T01:50:05.416Z,326.33
2018-12-14T01:52:34.870Z,246.73
2018-12-14T01:55:03.765Z,281.40
2018-12-14T01:57:32.689Z,339.80
2018-12-14T02:00:01.231Z,273.53
2018-12-14T02:02:30.002Z,255.67
2018-12-14T02:04:58.834Z,385.20
2018-12-14T02:07:27.469Z,266.20
2018-12-14T02:09:56.694Z,291.23
2018-12-14T02:12:25.329Z,337.97
2018-12-14T02:14:53.965Z,245.23
2018-12-14T02:17:22.799Z,330.73
2018-12-14T02:19:51.369Z,303.03
2018-12-14T02:22:20.074Z,348.70
2018-12-14T02:24:48.626Z,266.43
2018-12-14T02:27:17.072Z,265.23
2018-12-14T02:29:45.777Z,222.17
2018-12-14T02:32:14.580Z,265.50
2018-12-14T02:34:43.642Z,263.87
2018-12-14T02:37:12.669Z,209.40
2018-12-14T02:39:41.259Z,222.17
2018-12-14T02:42:10.101Z,280.33
2018-12-14T02:44:38.769Z,373.10
2018-12-14T02:47:07.629Z,242.70
2018-12-14T02:49:36.500Z,326.17
2018-12-14T02:52:05.070Z,194.50
2018-12-14T02:54:33.708Z,304.43
2018-12-14T02:57:03.201Z,231.73
2018-12-14T02:59:31.959Z,220.47
2018-12-14T03:02:00.536Z,189.77
2018-12-14T03:04:29.229Z,240.50
2018-12-14T03:06:57.799Z,203.60
2018-12-14T03:09:26.463Z,195.93
2018-12-14T03:11:55.137Z,187.10
2018-12-14T03:14:24.098Z,156.97
2018-12-14T03:16:52.800Z,208.67
2018-12-14T03:19:21.359Z,258.63
2018-12-14T03:21:50.072Z,217.33
2018-12-14T03:24:18.618Z,206.83
2018-12-14T03:26:47.342Z,195.80
2018-12-14T03:29:15.904Z,190.90
2018-12-14T03:31:44.615Z,275.63
2018-12-14T03:34:13.161Z,207.20
2018-12-14T03:36:42.082Z,182.93
2018-12-14T03:39:10.649Z,153.30
2018-12-14T03:41:39.355Z,189.67
2018-12-14T03:44:07.883Z,187.13
2018-12-14T03:46:36.601Z,155.43
2018-12-14T03:49:05.193Z,159.50
2018-12-14T03:51:33.808Z,225.73
2018-12-14T03:54:02.530Z,206.87
2018-12-14T03:56:31.041Z,186.37
2018-12-14T03:58:59.787Z,180.93
2018-12-14T04:01:28.403Z,163.50
2018-12-14T04:03:57.071Z,174.13
2018-12-14T04:06:25.639Z,200.20
2018-12-14T04:08:54.348Z,186.90
2018-12-14T04:11:23.176Z,148.60
2018-12-14T04:13:51.810Z,169.03
2018-12-14T04:16:20.556Z,169.70
2018-12-14T04:18:49.278Z,207.70
2018-12-14T04:21:17.913Z,196.43
2018-12-14T04:23:46.457Z,223.70
2018-12-14T04:26:14.989Z,170.10
2018-12-14T04:28:43.542Z,182.47
2018-12-14T04:31:12.258Z,189.53
2018-12-14T04:33:41.050Z,211.03
2018-12-14T04:36:09.726Z,231.60
2018-12-14T04:38:38.362Z,166.47
2018-12-14T04:41:07.195Z,195.60
2018-12-14T04:43:35.745Z,167.07
2018-12-14T04:46:04.437Z,197.67
2018-12-14T04:48:32.979Z,167.67
2018-12-14T04:51:01.705Z,186.83
2018-12-14T04:53:30.371Z,184.83
2018-12-14T04:55:58.881Z,208.43
2018-12-14T04:58:27.641Z,144.27
2018-12-14T05:00:56.191Z,134.23
2018-12-14T05:03:24.911Z,158.73
2018-12-14T05:05:53.549Z,171.30
2018-12-14T05:08:22.183Z,188.33
2018-12-14T05:10:50.819Z,200.23
2018-12-14T05:13:19.454Z,135.67
2018-12-14T05:15:48.091Z,156.83
2018-12-14T05:18:16.911Z,186.43
2018-12-14T05:20:45.630Z,168.73
2018-12-14T05:23:14.371Z,170.40
2018-12-14T05:25:43.027Z,135.77
2018-12-14T05:28:11.664Z,146.10
2018-12-14T05:30:40.224Z,137.17
2018-12-14T05:33:08.931Z,112.53
2018-12-14T05:35:37.766Z,126.13
2018-12-14T05:38:06.325Z,128.53
2018-12-14T05:40:35.036Z,113.90
2018-12-14T05:43:03.671Z,86.40
2018-12-14T05:45:32.501Z,82.50
2018-12-14T05:48:01.334Z,133.60
2018-12-14T05:50:29.885Z,148.50
2018-12-14T05:52:58.605Z,96.20
2018-12-14T05:55:27.171Z,139.10
2018-12-14T05:57:55.837Z,87.50
2018-12-14T06:00:24.513Z,100.47
2018-12-14T06:02:53.147Z,106.93
2018-12-14T06:05:21.715Z,117.17
2018-12-14T06:07:50.420Z,129.30
2018-12-14T06:10:18.900Z,94.80
2018-12-14T06:12:47.415Z,112.60
2018-12-14T06:15:16.128Z,145.90
2018-12-14T06:17:44.733Z,114.83
2018-12-14T06:20:13.767Z,116.97
2018-12-14T06:22:42.426Z,99.97
2018-12-14T06:25:11.036Z,134.50
2018-12-14T06:27:39.618Z,107.60
2018-12-14T06:30:08.530Z,123.27
2018-12-14T06:32:37.363Z,114.70
2018-12-14T06:35:06.588Z,117.20
2018-12-14T06:37:35.444Z,138.07
2018-12-14T06:40:05.509Z,123.90
2018-12-14T06:42:34.264Z,127.00
2018-12-14T06:45:03.094Z,124.43
2018-12-14T06:47:31.930Z,139.60
2018-12-14T06:50:00.563Z,137.53
2018-12-14T06:52:29.366Z,126.90
2018-12-14T06:54:58.065Z,136.33
2018-12-14T06:57:26.861Z,149.53
2018-12-14T06:59:56.601Z,125.87
2018-12-14T07:02:25.061Z,138.23
2018-12-14T07:04:53.726Z,143.93
2018-12-14T07:07:22.387Z,130.00
2018-12-14T07:09:51.023Z,142.23
2018-12-14T07:12:19.577Z,139.20
2018-12-14T07:14:49.660Z,144.60
2018-12-14T07:17:18.238Z,157.33
2018-12-14T07:19:46.939Z,157.03
2018-12-14T07:22:15.498Z,125.93
2018-12-14T07:24:44.210Z,150.57
2018-12-14T07:27:12.846Z,170.10
2018-12-14T07:29:41.482Z,163.40
2018-12-14T07:32:10.317Z,142.17
2018-12-14T07:34:39.133Z,123.60
2018-12-14T07:37:07.951Z,144.37
2018-12-14T07:39:36.593Z,141.47
2018-12-14T07:42:05.254Z,146.03
2018-12-14T07:44:33.975Z,141.27
2018-12-14T07:47:02.915Z,143.50
2018-12-14T07:49:31.553Z,163.13
2018-12-14T07:52:00.184Z,115.87
2018-12-14T07:54:28.696Z,146.57
2018-12-14T07:56:57.415Z,151.70
2018-12-14T07:59:26.057Z,130.97
2018-12-14T08:01:54.853Z,144.10
2018-12-14T08:04:23.490Z,162.50
2018-12-14T08:06:52.199Z,171.23
2018-12-14T08:09:20.950Z,174.37
2018-12-14T08:11:49.663Z,180.40
2018-12-14T08:14:18.297Z,171.33
2018-12-14T08:16:47.130Z,178.30
2018-12-14T08:19:15.633Z,151.97
2018-12-14T08:21:44.203Z,165.80
2018-12-14T08:24:13.155Z,148.00
2018-12-14T08:26:41.867Z,157.93
2018-12-14T08:29:10.665Z,138.43
2018-12-14T08:31:39.334Z,126.77
2018-12-14T08:34:08.166Z,147.00
2018-12-14T08:36:37.365Z,144.53
2018-12-14T08:39:07.009Z,117.17
2018-12-14T08:41:35.714Z,137.93
2018-12-14T08:44:04.282Z,146.70
2018-12-14T08:46:32.834Z,94.93
2018-12-14T08:49:01.552Z,125.33
2018-12-14T08:51:30.187Z,127.43
2018-12-14T08:53:59.021Z,117.03
2018-12-14T08:56:27.852Z,105.20
2018-12-14T08:58:56.879Z,108.93
2018-12-14T09:01:25.515Z,129.93
2018-12-14T09:03:54.347Z,139.33
2018-12-14T09:06:22.997Z,114.50
2018-12-14T09:08:51.739Z,97.30
2018-12-14T09:11:20.382Z,109.43
2018-12-14T09:13:48.959Z,103.73
2018-12-14T09:16:17.691Z,80.90
2018-12-14T09:18:46.355Z,83.13
2018-12-14T09:21:14.878Z,70.20
2018-12-14T09:23:43.621Z,83.10
2018-12-14T09:26:12.541Z,82.43
2018-12-14T09:28:41.556Z,84.90
2018-12-14T09:31:10.320Z,80.57
2018-12-14T09:33:38.911Z,91.90
2018-12-14T09:36:07.592Z,79.20
2018-12-14T09:38:36.197Z,67.50
2018-12-14T09:41:04.992Z,68.90
2018-12-14T09:43:33.658Z,68.90
2018-12-14T09:46:02.200Z,77.33
2018-12-14T09:48:30.768Z,64.20
2018-12-14T09:50:59.308Z,52.90
2018-12-14T09:53:28.202Z,43.53
2018-12-14T09:55:56.770Z,54.33
2018-12-14T09:58:25.377Z,48.53
2018-12-14T10:00:54.337Z,54.73
2018-12-14T10:03:23.370Z,65.13
2018-12-14T10:05:52.262Z,56.63
2018-12-14T10:08:20.930Z,44.23
2018-12-14T10:10:49.729Z,43.93
2018-12-14T10:13:18.889Z,55.77
2018-12-14T10:15:47.455Z,46.90
2018-12-14T10:18:16.160Z,43.53
2018-12-14T10:20:44.715Z,43.37
2018-12-14T10:23:13.430Z,32.97
2018-12-14T10:25:41.941Z,30.77
2018-12-14T10:28:10.619Z,27.83
2018-12-14T10:30:39.337Z,29.90
2018-12-14T10:33:07.973Z,29.97
2018-12-14T10:35:36.673Z,29.87
2018-12-14T10:38:05.439Z,29.20
2018-12-14T10:40:34.254Z,31.60
2018-12-14T10:43:02.908Z,33.20
2018-12-14T10:45:32.003Z,25.63
2018-12-14T10:48:00.678Z,21.67
2018-12-14T10:50:35.500Z,23.13
2018-12-14T10:53:01.979Z,20.23
2018-12-14T10:55:30.803Z,23.67
2018-12-14T10:57:59.928Z,15.00
2018-12-14T11:00:34.169Z,18.83
2018-12-14T11:03:02.731Z,17.53
2018-12-14T11:05:31.399Z,16.00
2018-12-14T11:07:59.873Z,18.90
2018-12-14T11:10:28.634Z,15.00
2018-12-14T11:12:57.345Z,14.33
2018-12-14T11:15:25.895Z,12.87
2018-12-14T11:17:54.616Z,16.53
2018-12-14T11:20:23.177Z,17.03
2018-12-14T11:22:51.886Z,12.37
2018-12-14T11:25:20.725Z,10.93
2018-12-14T11:27:49.550Z,14.10
2018-12-14T11:30:17.995Z,11.57
2018-12-14T11:32:46.624Z,13.93
2018-12-14T11:35:15.261Z,15.70
2018-12-14T11:37:44.484Z,17.77
2018-12-14T11:40:13.040Z,14.00
2018-12-14T11:42:41.755Z,16.33
2018-12-14T11:45:10.588Z,15.60
2018-12-14T11:47:39.224Z,15.47
2018-12-14T11:50:08.322Z,15.60
2018-12-14T11:52:37.082Z,17.20
2018-12-14T11:55:07.992Z,15.47
2018-12-14T11:57:36.559Z,16.43
2018-12-14T12:00:09.074Z,14.50
2018-12-14T12:02:43.067Z,18.43
2018-12-14T12:05:08.938Z,18.70
2018-12-14T12:07:38.600Z,15.97
2018-12-14T12:10:08.979Z,16.87
2018-12-14T12:12:37.613Z,18.80
2018-12-14T12:15:06.795Z,19.83
2018-12-14T12:17:37.373Z,19.27
2018-12-14T12:20:07.081Z,21.47
2018-12-14T12:22:35.905Z,18.53
2018-12-14T12:25:05.158Z,23.30
2018-12-14T12:27:33.944Z,20.43
2018-12-14T12:30:02.866Z,19.83
2018-12-14T12:32:31.476Z,16.50
2018-12-14T12:35:00.218Z,20.37
2018-12-14T12:37:28.788Z,21.00
2018-12-14T12:39:57.474Z,21.63
2018-12-14T12:42:26.174Z,18.77
2018-12-14T12:44:54.810Z,15.20
2018-12-14T12:47:23.475Z,18.53
2018-12-14T12:49:52.212Z,14.10
2018-12-14T12:52:21.044Z,17.43
2018-12-14T12:54:49.530Z,12.97
2018-12-14T12:57:18.509Z,15.43
2018-12-14T12:59:47.393Z,12.40
2018-12-14T13:02:16.233Z,18.60
2018-12-14T13:04:45.204Z,13.63
2018-12-14T13:07:14.038Z,11.07
2018-12-14T13:09:42.689Z,12.57
2018-12-14T13:12:11.503Z,10.57
2018-12-14T13:14:40.281Z,9.33
2018-12-14T13:17:09.036Z,12.47
2018-12-14T13:19:37.754Z,14.60
2018-12-14T13:22:06.437Z,11.93
2018-12-14T13:24:35.039Z,11.07
2018-12-14T13:27:03.582Z,9.93
2018-12-14T13:29:32.272Z,10.07
2018-12-14T13:32:00.911Z,10.97
2018-12-14T13:34:29.532Z,9.00
2018-12-14T13:36:58.225Z,10.07
2018-12-14T13:39:26.892Z,8.27
2018-12-14T13:41:55.487Z,8.67
2018-12-14T13:44:24.155Z,7.63
2018-12-14T13:46:52.877Z,7.57
2018-12-14T13:49:21.586Z,10.50
2018-12-14T13:51:50.456Z,11.63
2018-12-14T13:54:19.287Z,9.60
2018-12-14T13:56:48.514Z,10.23
2018-12-14T13:59:17.055Z,7.67
2018-12-14T14:01:45.785Z,11.47
2018-12-14T14:04:14.419Z,8.80
2018-12-14T14:06:43.355Z,5.80
2018-12-14T14:09:11.987Z,7.47
2018-12-14T14:11:40.641Z,8.70
2018-12-14T14:14:09.354Z,7.77
2018-12-14T14:16:38.305Z,8.47
2018-12-14T14:19:06.884Z,6.83
2018-12-14T14:21:35.539Z,7.93
2018-12-14T14:24:04.292Z,7.33
2018-12-14T14:26:32.924Z,8.47
2018-12-14T14:29:01.535Z,7.70
2018-12-14T14:31:30.204Z,6.03
2018-12-14T14:33:58.900Z,6.53
2018-12-14T14:36:27.593Z,6.43
2018-12-14T14:38:56.238Z,4.23
2018-12-14T14:41:24.934Z,9.10
2018-12-14T14:43:53.765Z,6.40
2018-12-14T14:46:22.307Z,5.40
2018-12-14T14:48:52.502Z,4.27
2018-12-14T14:51:21.668Z,6.87
2018-12-14T14:53:50.235Z,5.20
2018-12-14T14:56:20.386Z,4.50
2018-12-14T14:58:49.015Z,5.80
2018-12-14T15:01:17.753Z,5.47
2018-12-14T15:03:46.386Z,7.53
2018-12-14T15:06:14.929Z,6.17
2018-12-14T15:08:43.589Z,6.07
2018-12-14T15:11:12.490Z,6.57
2018-12-14T15:13:41.321Z,5.70
2018-12-14T15:16:09.917Z,4.93
2018-12-14T15:18:38.789Z,6.13
2018-12-14T15:21:07.926Z,7.77
2018-12-14T15:23:37.138Z,8.53
2018-12-14T15:26:06.070Z,6.67
2018-12-14T15:28:34.606Z,5.03
2018-12-14T15:31:03.341Z,5.57
2018-12-14T15:33:31.978Z,8.37
2018-12-14T15:36:00.613Z,6.60
2018-12-14T15:38:29.170Z,6.80
2018-12-14T15:40:57.886Z,8.13
2018-12-14T15:43:26.704Z,7.07
2018-12-14T15:45:55.426Z,5.07
2018-12-14T15:48:24.064Z,5.90
2018-12-14T15:50:53.014Z,5.50
2018-12-14T15:53:21.759Z,9.20
2018-12-14T15:55:50.286Z,8.97
2018-12-14T15:58:18.794Z,5.13
2018-12-14T16:00:47.550Z,7.53
2018-12-14T16:03:16.387Z,5.17
2018-12-14T16:05:45.223Z,6.83
2018-12-14T16:08:14.051Z,5.60
2018-12-14T16:10:42.885Z,6.33
2018-12-14T16:13:11.493Z,7.87
2018-12-14T16:15:40.129Z,7.67
2018-12-14T16:18:09.089Z,8.90
2018-12-14T16:20:37.941Z,6.70
2018-12-14T16:23:06.665Z,6.00
2018-12-14T16:25:35.393Z,5.93
2018-12-14T16:28:04.210Z,5.27
2018-12-14T16:30:32.827Z,7.60
2018-12-14T16:33:01.554Z,11.47
2018-12-14T16:35:30.088Z,15.97
2018-12-14T16:37:58.785Z,15.37
2018-12-14T16:40:27.491Z,14.90
2018-12-14T16:42:56.043Z,15.77
2018-12-14T16:45:26.653Z,14.03
2018-12-14T16:47:55.689Z,16.10
2018-12-14T16:50:24.588Z,14.20
2018-12-14T16:52:53.223Z,15.73
2018-12-14T16:55:22.056Z,17.83
2018-12-14T16:57:50.776Z,19.93
2018-12-14T17:00:19.634Z,16.10
2018-12-14T17:02:48.552Z,16.23
2018-12-14T17:05:17.382Z,17.00
2018-12-14T17:07:46.414Z,17.90
2018-12-14T17:10:15.112Z,20.80
2018-12-14T17:12:44.076Z,19.03
2018-12-14T17:15:12.620Z,20.77
2018-12-14T17:17:41.553Z,22.23
2018-12-14T17:20:10.303Z,21.40
2018-12-14T17:22:39.019Z,20.30
2018-12-14T17:25:07.777Z,20.63
2018-12-14T17:27:36.482Z,21.87
2018-12-14T17:30:06.773Z,18.60
2018-12-14T17:32:35.426Z,21.20
2018-12-14T17:35:04.743Z,21.93
2018-12-14T17:37:33.442Z,22.20
2018-12-14T17:40:02.211Z,20.83
2018-12-14T17:42:31.557Z,23.07
2018-12-14T17:45:00.173Z,20.63
2018-12-14T17:47:28.770Z,23.20
2018-12-14T17:49:57.534Z,24.00
2018-12-14T17:52:26.373Z,21.53
2018-12-14T17:54:55.099Z,24.93
2018-12-14T17:57:24.044Z,25.97
2018-12-14T17:59:52.779Z,25.10
2018-12-14T18:02:21.501Z,25.63
2018-12-14T18:04:50.532Z,24.17
2018-12-14T18:07:19.081Z,24.30
2018-12-14T18:09:47.726Z,24.67
2018-12-14T18:12:16.635Z,23.87
2018-12-14T18:14:45.434Z,29.13
2018-12-14T18:17:14.027Z,29.47
2018-12-14T18:19:42.737Z,29.57
2018-12-14T18:22:11.285Z,28.47
2018-12-14T18:24:39.980Z,29.83
2018-12-14T18:27:08.841Z,23.33
2018-12-14T18:29:37.986Z,27.07
2018-12-14T18:32:06.502Z,31.10
2018-12-14T18:34:35.278Z,26.27
2018-12-14T18:37:04.038Z,29.93
2018-12-14T18:39:32.782Z,28.37
2018-12-14T18:42:01.601Z,31.13
2018-12-14T18:44:30.271Z,30.77
2018-12-14T18:46:58.709Z,27.00
2018-12-14T18:49:27.345Z,28.57
2018-12-14T18:51:55.943Z,31.23
2018-12-14T18:54:24.509Z,35.27
2018-12-14T18:56:53.226Z,27.67
2018-12-14T18:59:22.084Z,29.00
2018-12-14T19:01:50.804Z,26.40
2018-12-14T19:04:19.453Z,28.60
2018-12-14T19:06:48.096Z,31.03
2018-12-14T19:09:17.087Z,35.37
2018-12-14T19:11:45.754Z,29.13
2018-12-14T19:14:14.368Z,31.23
2018-12-14T19:16:42.940Z,28.80
2018-12-14T19:19:12.786Z,27.90
2018-12-14T19:21:41.569Z,29.07
2018-12-14T19:24:10.366Z,27.33
2018-12-14T19:26:39.233Z,29.63
2018-12-14T19:29:07.775Z,29.03
2018-12-14T19:31:36.345Z,30.37
2018-12-14T19:34:05.138Z,29.87
2018-12-14T19:36:33.839Z,28.93
2018-12-14T19:39:02.802Z,34.13
2018-12-14T19:41:31.292Z,31.50
2018-12-14T19:43:59.881Z,31.73
2018-12-14T19:46:28.512Z,29.30
2018-12-14T19:48:57.147Z,31.30
2018-12-14T19:51:25.704Z,36.07
2018-12-14T19:53:54.287Z,34.10
2018-12-14T19:56:23.055Z,34.23
2018-12-14T19:58:51.885Z,36.37
2018-12-14T20:01:20.477Z,30.70
2018-12-14T20:03:49.079Z,34.53
2018-12-14T20:06:17.686Z,30.17
2018-12-14T20:08:46.232Z,27.60
2018-12-14T20:11:15.139Z,31.87
2018-12-14T20:13:43.893Z,30.40
2018-12-14T20:16:12.993Z,32.20
2018-12-14T20:18:42.147Z,34.53
2018-12-14T20:21:10.783Z,33.33
2018-12-14T20:23:39.614Z,30.57
2018-12-14T20:26:08.375Z,34.47
2018-12-14T20:28:36.961Z,30.63
2018-12-14T20:31:06.112Z,34.63
2018-12-14T20:33:34.945Z,36.20
2018-12-14T20:36:03.715Z,39.97
2018-12-14T20:38:32.608Z,41.23
2018-12-14T20:41:01.427Z,44.50
2018-12-14T20:43:30.152Z,36.23
2018-12-14T20:45:59.102Z,40.03
2018-12-14T20:48:28.076Z,46.03
2018-12-14T20:50:57.242Z,38.43
2018-12-14T20:53:26.088Z,38.17
2018-12-14T20:55:55.228Z,37.70
2018-12-14T20:58:24.173Z,36.33
2018-12-14T21:00:52.971Z,35.13
2018-12-14T21:03:22.084Z,34.67
2018-12-14T21:05:51.272Z,39.10
2018-12-14T21:08:20.161Z,36.97
2018-12-14T21:10:49.189Z,39.83
2018-12-14T21:13:17.825Z,35.77
2018-12-14T21:15:46.609Z,37.07
2018-12-14T21:18:15.292Z,35.43
2018-12-14T21:20:44.124Z,32.50
2018-12-14T21:23:13.155Z,37.90
2018-12-14T21:25:41.802Z,35.17
2018-12-14T21:28:10.262Z,36.13
2018-12-14T21:30:39.258Z,34.90
2018-12-14T21:33:08.087Z,31.37
2018-12-14T21:35:36.918Z,34.03
2018-12-14T21:38:05.747Z,29.93
2018-12-14T21:40:34.583Z,29.30
2018-12-14T21:43:03.218Z,29.17
2018-12-14T21:45:31.822Z,30.43
2018-12-14T21:48:00.570Z,28.83
2018-12-14T21:50:29.388Z,28.87
2018-12-14T21:52:58.152Z,28.73
2018-12-14T21:55:26.795Z,30.83
2018-12-14T21:57:56.126Z,35.47
2018-12-14T22:00:24.845Z,31.67
2018-12-14T22:02:53.395Z,31.00
2018-12-14T22:05:21.889Z,34.00
2018-12-14T22:07:50.477Z,29.07
2018-12-14T22:10:21.345Z,29.17
2018-12-14T22:12:49.940Z,29.20
2018-12-14T22:15:18.604Z,30.07
2018-12-14T22:17:47.455Z,29.43
2018-12-14T22:20:16.187Z,29.43
2018-12-14T22:22:44.835Z,28.13
2018-12-14T22:25:13.536Z,27.83
2018-12-14T22:27:42.117Z,31.43
2018-12-14T22:30:11.039Z,31.13
2018-12-14T22:32:39.562Z,27.13
2018-12-14T22:35:08.216Z,29.60
2018-12-14T22:37:37.129Z,29.17
2018-12-14T22:40:07.551Z,30.10
2018-12-14T22:42:36.275Z,31.93
2018-12-14T22:45:06.085Z,33.07
2018-12-14T22:47:34.816Z,31.70
2018-12-14T22:50:04.221Z,28.53
2018-12-14T22:52:32.872Z,28.27
2018-12-14T22:55:01.709Z,30.37
2018-12-14T22:57:30.596Z,29.53
2018-12-14T22:59:59.383Z,31.27
2018-12-14T23:02:28.265Z,30.87
2018-12-14T23:04:56.903Z,30.83
2018-12-14T23:07:25.644Z,33.83
2018-12-14T23:09:54.302Z,30.83
2018-12-14T23:12:22.938Z,30.77
2018-12-14T23:14:51.545Z,30.13
2018-12-14T23:17:20.077Z,30.47
2018-12-14T23:19:48.976Z,29.97
2018-12-14T23:22:17.668Z,36.10
2018-12-14T23:24:46.311Z,31.30
2018-12-14T23:27:14.867Z,31.50
2018-12-14T23:29:43.582Z,31.27
2018-12-14T23:32:12.145Z,34.10
2018-12-14T23:34:40.853Z,30.20
2018-12-14T23:37:13.840Z,29.97
2018-12-14T23:39:40.287Z,31.47
2018-12-14T23:42:08.855Z,29.57
2018-12-14T23:44:37.518Z,28.70
2018-12-14T23:47:07.570Z,29.90
2018-12-14T23:49:36.173Z,31.53
2018-12-14T23:52:04.913Z,28.90
2018-12-14T23:54:33.655Z,29.87
2018-12-14T23:57:02.307Z,29.43
2018-12-14T23:59:31.141Z,35.37
